Mount Hulda, Missouri
Current Conditions -  °F | °C
As of 7:53 AM on Thursday 30 Oct 2014 (Local Time) from KDMO Reporting Station
Overcast Overcast  
Wind Chill: 44°   Ceiling: 9000
Heat Index: 48°   Visibility: 10mi
Dew Point: 36°   Wind: 8mph
Humidity: 63%   Direction: 160°SSE
Pressure: 30.06"   Gusts: NA
Location:  38.4446°N, 93.178°W
Report Text: KDMO 301253Z AUTO 16007KT 10SM OVC090 09/02 A3006 RMK AO2 SLP180 T00890022
Loading
Personal Weather Stations






























Interactive Weather Map New forecast layout! Learn more

10-Day Weather Forecast

Advertisements
Track Severe Weather on mobile